SWA3549 KDAL-KSAN
Flight info
| Callsign | SWA3549 |
|---|---|
| Flight time | N/A |
| Altitude | 36000 |
| Route | SNSET4 CIKAN EWM Q2 ITUCO TFD J50 GBN J2 HOGGZ LUCKI1 |
| Aircraft | B38M/M-SDE1FGHILORVWXY/HB1 |
Departure
| Time | 2026-04-30 13:29 |
|---|---|
| Airport | Dallas Love Field (KDAL) |
Arrival
| Time | N/A |
|---|---|
| Airport | San Diego International Airport (KSAN) |
| Time | Latitude | Longitude | Altitude | Speed | Heading |
|---|---|---|---|---|---|
| 2026-04-30 12:55 | 32.84561 | -96.85154 | 486 ft | 0 kts | 0° |
| 2026-04-30 13:01 | 32.84565 | -96.85154 | 480 ft | 0 kts | 0° |
| 2026-04-30 13:19 | 32.84551 | -96.85154 | 480 ft | 4 kts | 0° |
| 2026-04-30 13:19 | 32.84524 | -96.85154 | 483 ft | 4 kts | 0° |
| 2026-04-30 13:19 | 32.84510 | -96.85155 | 481 ft | 0 kts | 0° |
| 2026-04-30 13:23 | 32.84524 | -96.85165 | 478 ft | 1 kts | 285° |
| 2026-04-30 13:24 | 32.84509 | -96.85269 | 486 ft | 12 kts | 244° |
| 2026-04-30 13:24 | 32.84350 | -96.85256 | 485 ft | 15 kts | 135° |
| 2026-04-30 13:25 | 32.84192 | -96.85071 | 483 ft | 17 kts | 133° |
| 2026-04-30 13:25 | 32.84015 | -96.84866 | 476 ft | 19 kts | 137° |
| 2026-04-30 13:26 | 32.83709 | -96.84514 | 485 ft | 22 kts | 135° |
| 2026-04-30 13:26 | 32.83496 | -96.84284 | 478 ft | 10 kts | 169° |
| 2026-04-30 13:27 | 32.83468 | -96.84288 | 482 ft | 3 kts | 201° |
| 2026-04-30 13:28 | 32.83524 | -96.84499 | 481 ft | 29 kts | 317° |
| 2026-04-30 13:28 | 32.84552 | -96.85676 | 488 ft | 171 kts | 316° |
| 2026-04-30 13:28 | 32.85498 | -96.86768 | 854 ft | 202 kts | 319° |
| 2026-04-30 13:29 | 32.87297 | -96.88792 | 2266 ft | 219 kts | 322° |
| 2026-04-30 13:29 | 32.89740 | -96.91621 | 3356 ft | 274 kts | 318° |
| 2026-04-30 13:30 | 32.92581 | -96.97470 | 6591 ft | 283 kts | 274° |
| 2026-04-30 13:31 | 32.90984 | -97.01439 | 9003 ft | 258 kts | 223° |
| 2026-04-30 13:31 | 32.85875 | -97.03854 | 9129 ft | 294 kts | 183° |
| 2026-04-30 13:32 | 32.81799 | -97.03882 | 10471 ft | 293 kts | 185° |
| 2026-04-30 13:32 | 32.77594 | -97.03880 | 11661 ft | 319 kts | 185° |
| 2026-04-30 13:33 | 32.72963 | -97.04316 | 12400 ft | 342 kts | 206° |
| 2026-04-30 13:33 | 32.69508 | -97.07938 | 13718 ft | 334 kts | 246° |
| 2026-04-30 13:34 | 32.68746 | -97.10492 | 14306 ft | 334 kts | 258° |
| 2026-04-30 13:34 | 32.67124 | -97.18657 | 16244 ft | 343 kts | 259° |
| 2026-04-30 13:35 | 32.66613 | -97.21433 | 16880 ft | 345 kts | 259° |
| 2026-04-30 13:35 | 32.66020 | -97.27092 | 18134 ft | 349 kts | 272° |
| 2026-04-30 13:36 | 32.66222 | -97.32893 | 19184 ft | 354 kts | 272° |
| 2026-04-30 13:36 | 32.66333 | -97.35817 | 19719 ft | 355 kts | 271° |
| 2026-04-30 13:36 | 32.66568 | -97.41713 | 20752 ft | 360 kts | 271° |
| 2026-04-30 13:37 | 32.66687 | -97.44687 | 21270 ft | 362 kts | 271° |
| 2026-04-30 13:37 | 32.66925 | -97.50681 | 22323 ft | 363 kts | 271° |
| 2026-04-30 13:38 | 32.67162 | -97.56710 | 23242 ft | 368 kts | 270° |
| 2026-04-30 13:38 | 32.67280 | -97.59754 | 23655 ft | 370 kts | 270° |
| 2026-04-30 13:38 | 32.67519 | -97.65903 | 24343 ft | 374 kts | 270° |
| 2026-04-30 13:39 | 32.67754 | -97.72062 | 25103 ft | 377 kts | 271° |
| 2026-04-30 13:39 | 32.67325 | -97.78268 | 25823 ft | 379 kts | 264° |
| 2026-04-30 13:40 | 32.67072 | -97.81395 | 26188 ft | 381 kts | 264° |
| 2026-04-30 13:40 | 32.66829 | -97.84529 | 26561 ft | 382 kts | 265° |
| 2026-04-30 13:40 | 32.66591 | -97.87677 | 26891 ft | 384 kts | 265° |
| 2026-04-30 13:40 | 32.66353 | -97.90840 | 27243 ft | 386 kts | 265° |
| 2026-04-30 13:41 | 32.66114 | -97.94013 | 27573 ft | 387 kts | 265° |
| 2026-04-30 13:41 | 32.65874 | -97.97204 | 27903 ft | 389 kts | 265° |
| 2026-04-30 13:41 | 32.65631 | -98.00404 | 28233 ft | 390 kts | 265° |
| 2026-04-30 13:41 | 32.65387 | -98.03624 | 28557 ft | 391 kts | 265° |
| 2026-04-30 13:42 | 32.65142 | -98.06843 | 28868 ft | 393 kts | 265° |
| 2026-04-30 13:42 | 32.64895 | -98.10073 | 29186 ft | 394 kts | 265° |
| 2026-04-30 13:42 | 32.64397 | -98.16552 | 29960 ft | 393 kts | 266° |
| 2026-04-30 13:43 | 32.64149 | -98.19766 | 30375 ft | 390 kts | 266° |
| 2026-04-30 13:43 | 32.63896 | -98.22966 | 30775 ft | 388 kts | 266° |
| 2026-04-30 13:43 | 32.63643 | -98.26098 | 31187 ft | 385 kts | 266° |
| 2026-04-30 13:43 | 32.63387 | -98.29249 | 31604 ft | 382 kts | 266° |
| 2026-04-30 13:44 | 32.63133 | -98.32375 | 32026 ft | 380 kts | 266° |
| 2026-04-30 13:44 | 32.62880 | -98.35483 | 32449 ft | 377 kts | 266° |
| 2026-04-30 13:44 | 32.62628 | -98.38569 | 32847 ft | 375 kts | 266° |
| 2026-04-30 13:44 | 32.62376 | -98.41640 | 33234 ft | 373 kts | 266° |
| 2026-04-30 13:45 | 32.61875 | -98.47724 | 34067 ft | 368 kts | 266° |
| 2026-04-30 13:45 | 32.61625 | -98.50738 | 34430 ft | 366 kts | 266° |
| 2026-04-30 13:45 | 32.61377 | -98.53732 | 34737 ft | 364 kts | 266° |
| 2026-04-30 13:46 | 32.61129 | -98.56712 | 35040 ft | 363 kts | 266° |
| 2026-04-30 13:46 | 32.60881 | -98.59682 | 35317 ft | 362 kts | 266° |
| 2026-04-30 13:46 | 32.60633 | -98.62647 | 35601 ft | 360 kts | 265° |
| 2026-04-30 13:46 | 32.60385 | -98.65602 | 35863 ft | 360 kts | 265° |
| 2026-04-30 13:47 | 32.60137 | -98.68550 | 36039 ft | 360 kts | 265° |
| 2026-04-30 13:47 | 32.59641 | -98.74425 | 36047 ft | 356 kts | 265° |
| 2026-04-30 13:48 | 32.59143 | -98.80294 | 36053 ft | 358 kts | 265° |
| 2026-04-30 13:48 | 32.58641 | -98.86162 | 36061 ft | 358 kts | 265° |
| 2026-04-30 13:49 | 32.58141 | -98.91988 | 36058 ft | 358 kts | 265° |
| 2026-04-30 13:49 | 32.57634 | -98.97855 | 36056 ft | 358 kts | 265° |
| 2026-04-30 13:50 | 32.57124 | -99.03725 | 36044 ft | 358 kts | 265° |
| 2026-04-30 13:50 | 32.56354 | -99.12531 | 36004 ft | 358 kts | 265° |
| 2026-04-30 13:51 | 32.55836 | -99.18409 | 36002 ft | 359 kts | 265° |
| 2026-04-30 13:51 | 32.55316 | -99.24291 | 36004 ft | 359 kts | 265° |
| 2026-04-30 13:52 | 32.54794 | -99.30173 | 36005 ft | 359 kts | 265° |
| 2026-04-30 13:52 | 32.54392 | -99.36062 | 36010 ft | 359 kts | 266° |
| 2026-04-30 13:53 | 32.54044 | -99.41963 | 36013 ft | 359 kts | 266° |
| 2026-04-30 13:53 | 32.53691 | -99.47828 | 36002 ft | 359 kts | 266° |
| 2026-04-30 13:54 | 32.53330 | -99.53766 | 36024 ft | 362 kts | 265° |
| 2026-04-30 13:54 | 32.52966 | -99.59716 | 36023 ft | 362 kts | 265° |
| 2026-04-30 13:55 | 32.52598 | -99.65666 | 36023 ft | 362 kts | 265° |
| 2026-04-30 13:55 | 32.52228 | -99.71615 | 36026 ft | 362 kts | 265° |
| 2026-04-30 13:56 | 32.51855 | -99.77562 | 36001 ft | 362 kts | 265° |
| 2026-04-30 13:56 | 32.51479 | -99.83513 | 35981 ft | 362 kts | 265° |
| 2026-04-30 13:57 | 32.51101 | -99.89461 | 36004 ft | 362 kts | 265° |
| 2026-04-30 13:57 | 32.50719 | -99.95411 | 35999 ft | 362 kts | 265° |
| 2026-04-30 13:58 | 32.50141 | -100.04340 | 36003 ft | 362 kts | 265° |
| 2026-04-30 13:59 | 32.49752 | -100.10293 | 36008 ft | 362 kts | 265° |
| 2026-04-30 13:59 | 32.49360 | -100.16245 | 36008 ft | 362 kts | 265° |
| 2026-04-30 14:00 | 32.48968 | -100.22154 | 35986 ft | 363 kts | 265° |
| 2026-04-30 14:00 | 32.48370 | -100.31151 | 36017 ft | 365 kts | 265° |
| 2026-04-30 14:01 | 32.47976 | -100.37147 | 36055 ft | 365 kts | 265° |
| 2026-04-30 14:01 | 32.47580 | -100.43145 | 36083 ft | 365 kts | 265° |
| 2026-04-30 14:02 | 32.47182 | -100.49137 | 36083 ft | 365 kts | 265° |
| 2026-04-30 14:02 | 32.46780 | -100.55132 | 36081 ft | 365 kts | 265° |
| 2026-04-30 14:03 | 32.46376 | -100.61121 | 36074 ft | 364 kts | 265° |
| 2026-04-30 14:03 | 32.45972 | -100.67080 | 36058 ft | 363 kts | 265° |
| 2026-04-30 14:04 | 32.45564 | -100.73037 | 36036 ft | 363 kts | 265° |
| 2026-04-30 14:04 | 32.45154 | -100.78988 | 36026 ft | 363 kts | 265° |
| 2026-04-30 14:05 | 32.44742 | -100.84944 | 36022 ft | 363 kts | 265° |
| 2026-04-30 14:05 | 32.44327 | -100.90875 | 36019 ft | 363 kts | 265° |
| 2026-04-30 14:06 | 32.43706 | -100.99703 | 36016 ft | 363 kts | 265° |
| 2026-04-30 14:07 | 32.43072 | -101.08606 | 36004 ft | 363 kts | 265° |
| 2026-04-30 14:08 | 32.42431 | -101.17538 | 35992 ft | 363 kts | 265° |
| 2026-04-30 14:08 | 32.41787 | -101.26413 | 35984 ft | 363 kts | 265° |
| 2026-04-30 14:09 | 32.41352 | -101.32359 | 35983 ft | 362 kts | 265° |
| 2026-04-30 14:10 | 32.40696 | -101.41253 | 35976 ft | 361 kts | 265° |
| 2026-04-30 14:10 | 32.40255 | -101.47180 | 35972 ft | 361 kts | 265° |
| 2026-04-30 14:11 | 32.39812 | -101.53104 | 35976 ft | 361 kts | 265° |
| 2026-04-30 14:11 | 32.39366 | -101.59024 | 35973 ft | 361 kts | 265° |
| 2026-04-30 14:12 | 32.38918 | -101.64950 | 35975 ft | 361 kts | 264° |
| 2026-04-30 14:12 | 32.38466 | -101.70874 | 35964 ft | 362 kts | 264° |
| 2026-04-30 14:13 | 32.38013 | -101.76777 | 35967 ft | 363 kts | 264° |
| 2026-04-30 14:13 | 32.37554 | -101.82727 | 35967 ft | 363 kts | 264° |
| 2026-04-30 14:14 | 32.37092 | -101.88667 | 35969 ft | 363 kts | 264° |
| 2026-04-30 14:14 | 32.36627 | -101.94618 | 35961 ft | 363 kts | 264° |
| 2026-04-30 14:15 | 32.36160 | -102.00557 | 35959 ft | 363 kts | 264° |
| 2026-04-30 14:15 | 32.35690 | -102.06499 | 35942 ft | 363 kts | 264° |
| 2026-04-30 14:16 | 32.35218 | -102.12440 | 35953 ft | 366 kts | 264° |
| 2026-04-30 14:16 | 32.34738 | -102.18434 | 35954 ft | 366 kts | 264° |
| 2026-04-30 14:17 | 32.34255 | -102.24424 | 35957 ft | 366 kts | 264° |
| 2026-04-30 14:17 | 32.33770 | -102.30407 | 35958 ft | 366 kts | 264° |
| 2026-04-30 14:18 | 32.33365 | -102.35387 | 35957 ft | 366 kts | 264° |
| 2026-04-30 14:18 | 32.32629 | -102.44368 | 35957 ft | 367 kts | 264° |
| 2026-04-30 14:19 | 32.31881 | -102.53398 | 35953 ft | 368 kts | 264° |
| 2026-04-30 14:20 | 32.31380 | -102.59415 | 35952 ft | 368 kts | 264° |
| 2026-04-30 14:20 | 32.30622 | -102.68441 | 35945 ft | 368 kts | 264° |
| 2026-04-30 14:21 | 32.30113 | -102.74458 | 35947 ft | 368 kts | 264° |
| 2026-04-30 14:22 | 32.29343 | -102.83497 | 35940 ft | 370 kts | 264° |
| 2026-04-30 14:22 | 32.28568 | -102.92523 | 35933 ft | 370 kts | 264° |
| 2026-04-30 14:23 | 32.27519 | -103.04619 | 35934 ft | 370 kts | 264° |
| 2026-04-30 14:24 | 32.26724 | -103.13690 | 35921 ft | 370 kts | 264° |
| 2026-04-30 14:25 | 32.25657 | -103.25763 | 35920 ft | 371 kts | 264° |
| 2026-04-30 14:26 | 32.24846 | -103.34845 | 35921 ft | 371 kts | 264° |
| 2026-04-30 14:27 | 32.24028 | -103.43931 | 35913 ft | 371 kts | 264° |
| 2026-04-30 14:27 | 32.23479 | -103.49989 | 35905 ft | 371 kts | 264° |
| 2026-04-30 14:28 | 32.22649 | -103.59080 | 35903 ft | 371 kts | 263° |
| 2026-04-30 14:28 | 32.22093 | -103.65135 | 35891 ft | 371 kts | 263° |
| 2026-04-30 14:29 | 32.20972 | -103.77243 | 35897 ft | 371 kts | 263° |
| 2026-04-30 14:31 | 32.19553 | -103.92387 | 35891 ft | 372 kts | 263° |
| 2026-04-30 14:31 | 32.18691 | -104.01499 | 35878 ft | 372 kts | 263° |
| 2026-04-30 14:32 | 32.17821 | -104.10611 | 35971 ft | 372 kts | 263° |
| 2026-04-30 14:33 | 32.17241 | -104.16654 | 35986 ft | 372 kts | 263° |
| 2026-04-30 14:33 | 32.16361 | -104.25769 | 35988 ft | 374 kts | 263° |
| 2026-04-30 14:34 | 32.15767 | -104.31875 | 35979 ft | 374 kts | 263° |
| 2026-04-30 14:34 | 32.15170 | -104.37980 | 35960 ft | 375 kts | 263° |
| 2026-04-30 14:35 | 32.14273 | -104.47099 | 35926 ft | 374 kts | 263° |
| 2026-04-30 14:36 | 32.13670 | -104.53198 | 35890 ft | 374 kts | 263° |
| 2026-04-30 14:36 | 32.13063 | -104.59300 | 35858 ft | 375 kts | 263° |
| 2026-04-30 14:37 | 32.12453 | -104.65413 | 35847 ft | 375 kts | 263° |
| 2026-04-30 14:37 | 32.11838 | -104.71522 | 35848 ft | 374 kts | 263° |
| 2026-04-30 14:38 | 32.11227 | -104.77581 | 35842 ft | 374 kts | 263° |
| 2026-04-30 14:38 | 32.10609 | -104.83671 | 35848 ft | 374 kts | 263° |
| 2026-04-30 14:39 | 32.09989 | -104.89762 | 35861 ft | 374 kts | 263° |
| 2026-04-30 14:39 | 32.09365 | -104.95846 | 35830 ft | 373 kts | 263° |
| 2026-04-30 14:40 | 32.08427 | -105.04960 | 35832 ft | 373 kts | 263° |
| 2026-04-30 14:40 | 32.07801 | -105.10998 | 35821 ft | 373 kts | 263° |
| 2026-04-30 14:41 | 32.07164 | -105.17112 | 35832 ft | 373 kts | 263° |
| 2026-04-30 14:41 | 32.06533 | -105.23151 | 35829 ft | 373 kts | 263° |
| 2026-04-30 14:42 | 32.05894 | -105.29224 | 35838 ft | 373 kts | 263° |
| 2026-04-30 14:42 | 32.05254 | -105.35287 | 35833 ft | 372 kts | 263° |
| 2026-04-30 14:43 | 32.04613 | -105.41334 | 35825 ft | 372 kts | 263° |
| 2026-04-30 14:43 | 32.03968 | -105.47385 | 35805 ft | 370 kts | 263° |
| 2026-04-30 14:44 | 32.03322 | -105.53411 | 35837 ft | 371 kts | 263° |
| 2026-04-30 14:44 | 32.02678 | -105.59403 | 35832 ft | 371 kts | 263° |
| 2026-04-30 14:45 | 32.02024 | -105.65448 | 35847 ft | 371 kts | 262° |
| 2026-04-30 14:45 | 32.01371 | -105.71482 | 35829 ft | 371 kts | 262° |
| 2026-04-30 14:46 | 32.00714 | -105.77518 | 35832 ft | 371 kts | 262° |
| 2026-04-30 14:46 | 32.00055 | -105.83551 | 35843 ft | 371 kts | 262° |
| 2026-04-30 14:47 | 31.99393 | -105.89583 | 35839 ft | 371 kts | 262° |
| 2026-04-30 14:47 | 31.98728 | -105.95615 | 35843 ft | 372 kts | 262° |
| 2026-04-30 14:48 | 31.98060 | -106.01652 | 35864 ft | 371 kts | 262° |
| 2026-04-30 14:48 | 31.97391 | -106.07665 | 35888 ft | 370 kts | 262° |
| 2026-04-30 14:49 | 31.96724 | -106.13639 | 35916 ft | 370 kts | 262° |
| 2026-04-30 14:49 | 31.96052 | -106.19637 | 35951 ft | 369 kts | 262° |
| 2026-04-30 14:50 | 31.95524 | -106.28656 | 35995 ft | 371 kts | 277° |
| 2026-04-30 14:51 | 31.96832 | -106.37681 | 36008 ft | 374 kts | 276° |
| 2026-04-30 14:52 | 31.98204 | -106.46720 | 35980 ft | 373 kts | 276° |
| 2026-04-30 14:52 | 31.99576 | -106.55725 | 36003 ft | 374 kts | 276° |
| 2026-04-30 14:53 | 32.00946 | -106.64764 | 36020 ft | 374 kts | 276° |
| 2026-04-30 14:54 | 32.02767 | -106.76845 | 36007 ft | 376 kts | 276° |
| 2026-04-30 14:55 | 32.04122 | -106.85882 | 35967 ft | 372 kts | 276° |
| 2026-04-30 14:56 | 32.05913 | -106.97903 | 35948 ft | 372 kts | 275° |
| 2026-04-30 14:57 | 32.07249 | -107.06926 | 35921 ft | 372 kts | 276° |
| 2026-04-30 14:58 | 32.09022 | -107.18971 | 35903 ft | 374 kts | 276° |
| 2026-04-30 14:58 | 32.10350 | -107.28042 | 35852 ft | 374 kts | 275° |
| 2026-04-30 15:00 | 32.12548 | -107.43167 | 35917 ft | 374 kts | 275° |
| 2026-04-30 15:01 | 32.14284 | -107.55210 | 35981 ft | 373 kts | 275° |
| 2026-04-30 15:01 | 32.15582 | -107.64265 | 36036 ft | 373 kts | 275° |
| 2026-04-30 15:02 | 32.16445 | -107.70313 | 36051 ft | 373 kts | 275° |
| 2026-04-30 15:03 | 32.18592 | -107.85447 | 35871 ft | 374 kts | 275° |
| 2026-04-30 15:04 | 32.20713 | -108.00536 | 35871 ft | 374 kts | 275° |
| 2026-04-30 15:06 | 32.22822 | -108.15676 | 35869 ft | 374 kts | 275° |
| 2026-04-30 15:07 | 32.24492 | -108.27762 | 35868 ft | 374 kts | 275° |
| 2026-04-30 15:08 | 32.26155 | -108.39883 | 35949 ft | 374 kts | 275° |
| 2026-04-30 15:09 | 32.28214 | -108.55017 | 36032 ft | 373 kts | 275° |
| 2026-04-30 15:10 | 32.29707 | -108.66082 | 36056 ft | 371 kts | 274° |
| 2026-04-30 15:11 | 32.31325 | -108.78152 | 35867 ft | 372 kts | 274° |
| 2026-04-30 15:11 | 32.32131 | -108.84200 | 35863 ft | 373 kts | 274° |
| 2026-04-30 15:13 | 32.34130 | -108.99305 | 35852 ft | 373 kts | 274° |
| 2026-04-30 15:14 | 32.36910 | -109.20548 | 35830 ft | 375 kts | 274° |
| 2026-04-30 15:17 | 32.40446 | -109.47976 | 35847 ft | 376 kts | 274° |
| 2026-04-30 15:19 | 32.43567 | -109.72553 | 35859 ft | 378 kts | 273° |